Time;durP1;ratioP1;P1;durP2;ratioP2;P2;SDS_P1;SDS_P2;PMS_P1;PMS_P2;Temp;Humidity;BMP_temperature;BMP_pressure;BME280_temperature;BME280_humidity;BME280_pressure;Samples;Min_cycle;Max_cycle;Signal;HPM_P1;HPM_P2
2022/09/02 00:01:29;;;;;;;;;;;21.90;68.50;;;;;;5043473;27;87064;-45
2022/09/02 00:03:56;;;;;;;;;;;21.80;68.50;;;;;;5045363;28;88119;-43
2022/09/02 00:06:22;;;;;;;;;;;21.80;68.50;;;;;;5042507;27;88113;-43
2022/09/02 00:08:47;;;;;;;;;;;21.80;68.40;;;;;;5041431;28;90540;-44
2022/09/02 00:11:14;;;;;;;;;;;21.80;68.40;;;;;;5043016;28;87209;-45
2022/09/02 00:13:40;;;;;;;;;;;21.80;68.50;;;;;;5042549;28;87516;-45
2022/09/02 00:16:05;;;;;;;;;;;21.80;68.50;;;;;;5042379;28;88187;-45
2022/09/02 00:18:32;;;;;;;;;;;21.80;68.40;;;;;;5043876;27;87055;-45
2022/09/02 00:20:58;;;;;;;;;;;21.80;68.50;;;;;;5046002;27;89332;-46
2022/09/02 00:23:23;;;;;;;;;;;21.80;68.50;;;;;;5045600;27;89841;-46
2022/09/02 00:25:49;;;;;;;;;;;21.80;68.50;;;;;;5049580;28;86351;-43
2022/09/02 00:28:15;;;;;;;;;;;21.80;68.50;;;;;;5045595;28;89898;-43
2022/09/02 00:30:41;;;;;;;;;;;21.80;68.50;;;;;;5045860;28;87213;-47
2022/09/02 00:33:07;;;;;;;;;;;21.70;68.50;;;;;;5045215;27;87902;-45
2022/09/02 00:35:32;;;;;;;;;;;21.70;68.50;;;;;;5045745;28;87942;-45
2022/09/02 00:37:58;;;;;;;;;;;21.70;68.60;;;;;;5046239;28;87112;-44
2022/09/02 00:40:25;;;;;;;;;;;21.70;68.60;;;;;;5046074;28;87058;-44
2022/09/02 00:42:50;;;;;;;;;;;21.80;68.60;;;;;;5045119;28;89401;-44
2022/09/02 00:45:17;;;;;;;;;;;21.70;68.50;;;;;;5045955;28;87049;-45
2022/09/02 00:47:44;;;;;;;;;;;21.70;68.50;;;;;;5048320;27;87353;-44
2022/09/02 00:50:11;;;;;;;;;;;21.70;68.60;;;;;;5045813;28;86373;-44
2022/09/02 00:52:42;;;;;;;;;;;21.70;68.60;;;;;;5045346;28;88151;-45
2022/09/02 00:55:15;;;;;;;;;;;21.70;68.70;;;;;;5045661;28;88015;-45
2022/09/02 00:57:53;;;;;;;;;;;21.70;68.70;;;;;;5045042;28;88012;-45
2022/09/02 01:00:23;;;;;;;;;;;21.70;68.60;;;;;;5045450;28;88306;-45
2022/09/02 01:02:50;;;;;;;;;;;21.70;68.70;;;;;;5045272;28;87863;-47
2022/09/02 01:05:17;;;;;;;;;;;21.70;68.60;;;;;;5045550;28;87050;-47
2022/09/02 01:07:43;;;;;;;;;;;21.70;68.70;;;;;;5048184;27;87418;-46
2022/09/02 01:10:11;;;;;;;;;;;21.60;68.60;;;;;;5045518;28;87091;-47
2022/09/02 01:12:36;;;;;;;;;;;21.60;68.70;;;;;;5045301;27;87338;-46
2022/09/02 01:15:03;;;;;;;;;;;21.60;68.70;;;;;;5045454;28;87043;-47
2022/09/02 01:17:33;;;;;;;;;;;21.60;68.80;;;;;;5045433;28;86969;-45
2022/09/02 01:20:01;;;;;;;;;;;21.60;68.80;;;;;;5045332;27;89165;-46
2022/09/02 01:22:28;;;;;;;;;;;21.60;68.80;;;;;;5044250;28;89022;-46
2022/09/02 01:24:55;;;;;;;;;;;21.70;68.80;;;;;;5045178;28;87123;-46
2022/09/02 01:27:22;;;;;;;;;;;21.60;68.80;;;;;;5045505;27;86891;-46
2022/09/02 01:29:54;;;;;;;;;;;21.60;68.80;;;;;;5046237;27;87152;-47
2022/09/02 01:32:20;;;;;;;;;;;21.60;68.80;;;;;;5044826;28;87115;-49
2022/09/02 01:34:46;;;;;;;;;;;21.60;68.90;;;;;;5043335;28;90901;-46
2022/09/02 01:37:12;;;;;;;;;;;21.60;68.90;;;;;;5045128;28;86930;-46
2022/09/02 01:39:37;;;;;;;;;;;21.60;68.90;;;;;;5045503;28;87535;-47
2022/09/02 01:42:03;;;;;;;;;;;21.50;68.90;;;;;;5044729;28;87993;-46
2022/09/02 01:44:28;;;;;;;;;;;21.50;68.90;;;;;;5044866;28;87100;-45
2022/09/02 01:46:54;;;;;;;;;;;21.50;68.90;;;;;;5044438;28;87801;-45
2022/09/02 01:49:20;;;;;;;;;;;21.50;68.90;;;;;;5044092;28;87299;-45
2022/09/02 01:51:45;;;;;;;;;;;21.50;68.90;;;;;;5047882;28;87069;-44
2022/09/02 01:54:11;;;;;;;;;;;21.50;69.00;;;;;;5044473;28;88016;-44
2022/09/02 01:56:37;;;;;;;;;;;21.50;69.00;;;;;;5044812;28;87118;-46
2022/09/02 01:59:03;;;;;;;;;;;21.50;68.90;;;;;;5044680;27;87565;-47
2022/09/02 02:01:29;;;;;;;;;;;21.50;68.90;;;;;;5043999;28;89562;-49
2022/09/02 02:03:54;;;;;;;;;;;21.50;69.00;;;;;;5045173;28;86309;-46
2022/09/02 02:06:20;;;;;;;;;;;21.50;69.00;;;;;;5044857;27;88067;-46
2022/09/02 02:08:46;;;;;;;;;;;21.40;69.00;;;;;;5044384;28;88101;-45
2022/09/02 02:11:17;;;;;;;;;;;21.40;68.90;;;;;;5043768;28;88041;-44
2022/09/02 02:13:43;;;;;;;;;;;21.50;69.00;;;;;;5046840;27;89761;-47
2022/09/02 02:16:08;;;;;;;;;;;21.40;68.90;;;;;;5044480;28;87094;-45
2022/09/02 02:18:34;;;;;;;;;;;21.40;68.90;;;;;;5044589;27;87410;-48
2022/09/02 02:20:59;;;;;;;;;;;21.40;69.00;;;;;;5044053;28;87160;-45
2022/09/02 02:23:25;;;;;;;;;;;21.40;69.10;;;;;;5044334;28;87453;-46
2022/09/02 02:25:50;;;;;;;;;;;21.40;69.20;;;;;;5044371;27;86997;-45
2022/09/02 02:28:16;;;;;;;;;;;21.40;69.10;;;;;;5044279;28;87772;-47
2022/09/02 02:30:42;;;;;;;;;;;21.40;69.10;;;;;;5043748;28;87112;-46
2022/09/02 02:33:08;;;;;;;;;;;21.40;69.20;;;;;;5044276;27;87276;-46
2022/09/02 02:35:33;;;;;;;;;;;21.40;69.20;;;;;;5046250;28;88758;-48
2022/09/02 02:37:59;;;;;;;;;;;21.40;69.20;;;;;;5044046;27;89598;-47
2022/09/02 02:40:24;;;;;;;;;;;21.40;69.20;;;;;;5043789;28;87236;-46
2022/09/02 02:42:52;;;;;;;;;;;21.40;69.20;;;;;;5043512;27;87106;-46
2022/09/02 02:45:18;;;;;;;;;;;21.30;69.20;;;;;;5043851;27;88800;-47
2022/09/02 02:47:45;;;;;;;;;;;21.30;69.20;;;;;;5043570;28;88075;-47
2022/09/02 02:50:12;;;;;;;;;;;21.30;69.10;;;;;;5043721;28;87090;-46
2022/09/02 02:52:39;;;;;;;;;;;21.40;69.10;;;;;;5044207;27;88185;-46
2022/09/02 02:55:05;;;;;;;;;;;21.40;69.20;;;;;;5043245;28;89943;-45
2022/09/02 02:57:31;;;;;;;;;;;21.30;69.20;;;;;;5046344;28;86969;-47
2022/09/02 02:59:56;;;;;;;;;;;21.30;69.20;;;;;;5042703;28;88951;-47
2022/09/02 03:02:22;;;;;;;;;;;21.30;69.20;;;;;;5043819;28;87076;-46
2022/09/02 03:04:49;;;;;;;;;;;21.30;69.10;;;;;;5043798;27;87016;-45
2022/09/02 03:07:15;;;;;;;;;;;21.30;69.20;;;;;;5043114;28;88441;-46
2022/09/02 03:09:41;;;;;;;;;;;21.30;69.20;;;;;;5043600;28;87093;-44
2022/09/02 03:12:07;;;;;;;;;;;21.30;69.20;;;;;;5043148;27;88866;-48
2022/09/02 03:14:32;;;;;;;;;;;21.30;69.20;;;;;;5042771;28;89335;-46
2022/09/02 03:16:58;;;;;;;;;;;21.30;69.30;;;;;;5046601;28;86100;-47
2022/09/02 03:19:24;;;;;;;;;;;21.30;69.30;;;;;;5043172;28;87974;-46
2022/09/02 03:21:49;;;;;;;;;;;21.20;69.20;;;;;;5043174;28;87091;-47
2022/09/02 03:24:15;;;;;;;;;;;21.20;69.20;;;;;;5042983;28;87851;-47
2022/09/02 03:26:41;;;;;;;;;;;21.20;69.30;;;;;;5043024;28;88071;-47
2022/09/02 03:29:07;;;;;;;;;;;21.20;69.30;;;;;;5042845;28;86849;-46
2022/09/02 03:31:32;;;;;;;;;;;21.20;69.20;;;;;;5043408;28;87469;-46
2022/09/02 03:33:58;;;;;;;;;;;21.20;69.30;;;;;;5042739;28;88112;-45
2022/09/02 03:36:25;;;;;;;;;;;21.20;69.30;;;;;;5043266;28;87097;-47
2022/09/02 03:38:51;;;;;;;;;;;21.20;69.40;;;;;;5045714;27;87346;-46
2022/09/02 03:41:16;;;;;;;;;;;21.20;69.30;;;;;;5043579;28;86345;-47
2022/09/02 03:43:42;;;;;;;;;;;21.20;69.30;;;;;;5042965;27;87535;-47
2022/09/02 03:46:08;;;;;;;;;;;21.20;69.40;;;;;;5042978;28;86925;-45
2022/09/02 03:48:34;;;;;;;;;;;21.20;69.40;;;;;;5041835;28;87913;-45
2022/09/02 03:51:00;;;;;;;;;;;21.20;69.30;;;;;;5042970;27;88440;-47
2022/09/02 03:53:26;;;;;;;;;;;21.20;69.40;;;;;;5041899;28;88053;-44
2022/09/02 03:55:51;;;;;;;;;;;21.20;69.30;;;;;;5043036;28;87079;-45
2022/09/02 03:58:17;;;;;;;;;;;21.10;69.30;;;;;;5042740;28;87450;-47
2022/09/02 04:00:43;;;;;;;;;;;21.10;69.30;;;;;;5045481;28;87887;-44
2022/09/02 04:03:08;;;;;;;;;;;21.10;69.40;;;;;;5042769;27;89255;-47
2022/09/02 04:05:34;;;;;;;;;;;21.10;69.30;;;;;;5043135;28;87326;-47
2022/09/02 04:08:00;;;;;;;;;;;21.10;69.40;;;;;;5042447;28;87347;-45
2022/09/02 04:10:25;;;;;;;;;;;21.10;69.40;;;;;;5042698;27;86966;-46
2022/09/02 04:12:51;;;;;;;;;;;21.10;69.40;;;;;;5041431;28;88914;-44
2022/09/02 04:15:18;;;;;;;;;;;21.10;69.40;;;;;;5042486;28;87275;-46
2022/09/02 04:17:44;;;;;;;;;;;21.10;69.40;;;;;;5042505;27;89006;-47
2022/09/02 04:20:10;;;;;;;;;;;21.10;69.50;;;;;;5042164;28;89587;-46
2022/09/02 04:22:36;;;;;;;;;;;21.00;69.50;;;;;;5045791;27;87223;-44
2022/09/02 04:25:02;;;;;;;;;;;21.10;69.50;;;;;;5042238;28;88168;-44
2022/09/02 04:27:28;;;;;;;;;;;21.10;69.50;;;;;;5042078;28;87157;-46
2022/09/02 04:29:53;;;;;;;;;;;21.10;69.50;;;;;;5042867;28;87427;-49
2022/09/02 04:32:20;;;;;;;;;;;21.00;69.40;;;;;;5042026;28;87999;-46
2022/09/02 04:34:46;;;;;;;;;;;21.00;69.50;;;;;;5042217;28;87327;-49
2022/09/02 04:37:12;;;;;;;;;;;21.00;69.50;;;;;;5041848;27;87864;-46
2022/09/02 04:39:38;;;;;;;;;;;21.00;69.50;;;;;;5041867;28;88318;-46
2022/09/02 04:42:03;;;;;;;;;;;21.00;69.50;;;;;;5042097;28;87071;-45
2022/09/02 04:44:29;;;;;;;;;;;21.00;69.60;;;;;;5044908;28;87463;-44
2022/09/02 04:46:54;;;;;;;;;;;21.00;69.60;;;;;;5042216;28;87034;-45
2022/09/02 04:49:20;;;;;;;;;;;21.00;69.60;;;;;;5042054;28;87357;-46
2022/09/02 04:51:46;;;;;;;;;;;21.00;69.60;;;;;;5041993;28;88532;-45
2022/09/02 04:54:11;;;;;;;;;;;20.90;69.50;;;;;;5042330;28;86381;-46
2022/09/02 04:56:37;;;;;;;;;;;20.90;69.50;;;;;;5042073;28;86862;-44
2022/09/02 04:59:03;;;;;;;;;;;21.00;69.60;;;;;;5041839;28;87919;-45
2022/09/02 05:01:31;;;;;;;;;;;20.90;69.50;;;;;;5041376;28;87986;-46
2022/09/02 05:03:56;;;;;;;;;;;20.90;69.50;;;;;;5044907;28;89966;-45
2022/09/02 05:06:25;;;;;;;;;;;20.90;69.50;;;;;;5045681;28;87240;-47
2022/09/02 05:08:52;;;;;;;;;;;20.90;69.50;;;;;;5045246;27;88776;-47
2022/09/02 05:11:19;;;;;;;;;;;20.90;69.60;;;;;;5044595;28;89376;-47
2022/09/02 05:13:48;;;;;;;;;;;20.90;69.50;;;;;;5045456;28;87088;-47
2022/09/02 05:16:15;;;;;;;;;;;20.90;69.50;;;;;;5045491;27;87316;-46
2022/09/02 05:18:40;;;;;;;;;;;20.90;69.50;;;;;;5045498;28;87339;-47
2022/09/02 05:21:06;;;;;;;;;;;20.90;69.60;;;;;;5045253;28;87112;-44
2022/09/02 05:23:31;;;;;;;;;;;20.90;70.20;;;;;;5045380;27;86950;-44
2022/09/02 05:25:57;;;;;;;;;;;20.90;69.60;;;;;;5046967;28;88844;-49
2022/09/02 05:28:22;;;;;;;;;;;20.90;69.70;;;;;;5045188;28;88316;-47
2022/09/02 05:30:48;;;;;;;;;;;20.90;69.60;;;;;;5044703;28;88616;-44
2022/09/02 05:33:13;;;;;;;;;;;20.90;69.70;;;;;;5045302;28;87118;-45
2022/09/02 05:35:40;;;;;;;;;;;20.90;69.60;;;;;;5045061;28;86936;-45
2022/09/02 05:38:07;;;;;;;;;;;20.90;69.70;;;;;;5044696;28;87834;-45
2022/09/02 05:40:33;;;;;;;;;;;20.80;69.60;;;;;;5044416;28;86984;-44
2022/09/02 05:42:58;;;;;;;;;;;20.80;69.70;;;;;;5045602;27;87430;-44
2022/09/02 05:45:24;;;;;;;;;;;20.90;69.70;;;;;;5044551;28;87973;-44
2022/09/02 05:47:49;;;;;;;;;;;20.90;69.60;;;;;;5047641;28;86897;-46
2022/09/02 05:50:15;;;;;;;;;;;20.90;69.70;;;;;;5043995;28;88790;-47
2022/09/02 05:52:41;;;;;;;;;;;20.90;69.70;;;;;;5044808;28;87145;-44
2022/09/02 05:55:07;;;;;;;;;;;20.80;69.60;;;;;;5044598;28;87592;-47
2022/09/02 05:57:33;;;;;;;;;;;20.80;69.70;;;;;;5044335;28;88267;-47
2022/09/02 05:59:58;;;;;;;;;;;20.80;69.70;;;;;;5044711;28;87124;-47
2022/09/02 06:02:24;;;;;;;;;;;20.80;69.70;;;;;;5044771;28;87626;-44
2022/09/02 06:04:50;;;;;;;;;;;20.80;69.70;;;;;;5044522;28;88064;-47
2022/09/02 06:07:17;;;;;;;;;;;20.80;69.80;;;;;;5045270;28;86351;-43
2022/09/02 06:09:43;;;;;;;;;;;20.80;69.80;;;;;;5046995;27;86974;-47
2022/09/02 06:12:10;;;;;;;;;;;20.80;69.80;;;;;;5044181;28;87090;-47
2022/09/02 06:14:36;;;;;;;;;;;20.80;69.80;;;;;;5043769;27;88907;-44
2022/09/02 06:17:03;;;;;;;;;;;20.70;69.80;;;;;;5043249;27;89311;-44
2022/09/02 06:19:29;;;;;;;;;;;20.80;69.90;;;;;;5044556;28;87560;-45
2022/09/02 06:21:55;;;;;;;;;;;20.70;69.90;;;;;;5044240;27;88727;-45
2022/09/02 06:24:21;;;;;;;;;;;20.80;70.00;;;;;;5043985;28;87313;-46
2022/09/02 06:26:46;;;;;;;;;;;20.70;69.90;;;;;;5044487;28;87097;-44
2022/09/02 06:29:12;;;;;;;;;;;20.70;70.00;;;;;;5044226;28;87390;-46
2022/09/02 06:31:42;;;;;;;;;;;20.70;69.90;;;;;;5047442;28;87427;-45
2022/09/02 06:34:11;;;;;;;;;;;20.70;69.90;;;;;;5044306;27;87017;-44
2022/09/02 06:36:36;;;;;;;;;;;20.70;70.00;;;;;;5043459;28;89345;-47
2022/09/02 06:39:02;;;;;;;;;;;20.70;70.00;;;;;;5043459;28;88084;-44
2022/09/02 06:41:29;;;;;;;;;;;20.70;70.00;;;;;;5043963;28;88391;-44
2022/09/02 06:43:56;;;;;;;;;;;20.70;70.00;;;;;;5043828;28;88038;-45
2022/09/02 06:46:23;;;;;;;;;;;20.70;70.00;;;;;;5043954;28;86914;-45
2022/09/02 06:48:49;;;;;;;;;;;20.70;70.00;;;;;;5043333;27;87392;-45
2022/09/02 06:51:18;;;;;;;;;;;20.70;70.00;;;;;;5043571;28;87933;-45
2022/09/02 06:53:43;;;;;;;;;;;20.70;70.00;;;;;;5046194;28;87104;-46
2022/09/02 06:56:09;;;;;;;;;;;20.70;70.00;;;;;;5044037;28;86825;-46
2022/09/02 06:58:35;;;;;;;;;;;20.70;70.00;;;;;;5043771;28;87092;-45
2022/09/02 07:01:00;;;;;;;;;;;20.70;70.00;;;;;;5043707;27;87187;-46
2022/09/02 07:06:10;;;;;;;;;;;20.70;70.00;;;;;;5043680;28;86997;-45
2022/09/02 07:08:37;;;;;;;;;;;20.70;70.10;;;;;;5043496;27;88996;-44
2022/09/02 07:11:03;;;;;;;;;;;20.70;70.10;;;;;;5042969;28;89308;-44
2022/09/02 07:13:28;;;;;;;;;;;20.70;70.20;;;;;;5046359;28;87089;-44
2022/09/02 07:15:54;;;;;;;;;;;20.70;70.10;;;;;;5043348;28;87635;-46
2022/09/02 07:18:19;;;;;;;;;;;20.70;70.00;;;;;;5043202;28;86995;-43
2022/09/02 07:20:46;;;;;;;;;;;20.70;70.20;;;;;;5043997;28;87561;-44
2022/09/02 07:23:11;;;;;;;;;;;20.70;70.20;;;;;;5043109;28;87181;-45
2022/09/02 07:25:37;;;;;;;;;;;20.70;70.20;;;;;;5043376;28;87156;-44
2022/09/02 07:28:04;;;;;;;;;;;20.70;70.10;;;;;;5041732;27;87938;-47
2022/09/02 07:30:30;;;;;;;;;;;20.70;70.20;;;;;;5042588;28;89496;-47
2022/09/02 07:32:56;;;;;;;;;;;20.70;70.20;;;;;;5043117;28;87121;-47
2022/09/02 07:35:21;;;;;;;;;;;20.70;70.20;;;;;;5045902;27;87458;-46
2022/09/02 07:37:48;;;;;;;;;;;20.70;70.20;;;;;;5043077;28;87089;-44
2022/09/02 07:40:15;;;;;;;;;;;20.70;70.10;;;;;;5042967;28;88170;-50
2022/09/02 07:42:40;;;;;;;;;;;20.70;70.20;;;;;;5042750;28;87977;-46
2022/09/02 07:45:07;;;;;;;;;;;20.70;70.20;;;;;;5043633;28;86284;-45
2022/09/02 07:47:33;;;;;;;;;;;20.70;70.20;;;;;;5043078;27;87328;-46
2022/09/02 07:49:59;;;;;;;;;;;20.60;70.20;;;;;;5042166;28;89360;-45
2022/09/02 07:52:24;;;;;;;;;;;20.70;70.30;;;;;;5042031;28;88056;-44
2022/09/02 07:54:50;;;;;;;;;;;20.70;70.30;;;;;;5042976;27;88304;-44
2022/09/02 07:57:16;;;;;;;;;;;20.70;70.30;;;;;;5045520;28;88109;-44
2022/09/02 07:59:41;;;;;;;;;;;20.70;70.30;;;;;;5043055;28;87424;-43
2022/09/02 08:02:08;;;;;;;;;;;20.60;70.30;;;;;;5042578;28;87784;-45
2022/09/02 08:04:34;;;;;;;;;;;20.70;70.20;;;;;;5042647;28;87116;-47
2022/09/02 08:06:59;;;;;;;;;;;20.70;70.20;;;;;;5042654;28;87551;-46
2022/09/02 08:09:25;;;;;;;;;;;20.60;70.20;;;;;;5043030;28;87282;-46
2022/09/02 08:11:51;;;;;;;;;;;20.60;70.20;;;;;;5042753;28;87119;-47
2022/09/02 08:14:19;;;;;;;;;;;20.60;70.30;;;;;;5042744;28;87605;-47
2022/09/02 08:16:45;;;;;;;;;;;20.70;70.20;;;;;;5041554;28;89019;-48
2022/09/02 08:19:11;;;;;;;;;;;20.70;70.20;;;;;;5045470;28;86870;-46
2022/09/02 08:21:36;;;;;;;;;;;20.60;70.10;;;;;;5042196;28;87598;-44
2022/09/02 08:24:02;;;;;;;;;;;20.60;70.20;;;;;;5040991;28;87187;-46
2022/09/02 08:26:28;;;;;;;;;;;20.60;70.20;;;;;;5042282;27;88791;-47
2022/09/02 08:28:54;;;;;;;;;;;20.60;70.30;;;;;;5041875;28;88714;-44
2022/09/02 08:31:20;;;;;;;;;;;20.70;70.30;;;;;;5042301;28;87072;-45
2022/09/02 08:33:45;;;;;;;;;;;20.60;70.30;;;;;;5042828;27;87361;-43
2022/09/02 08:36:13;;;;;;;;;;;20.60;70.30;;;;;;5041901;28;87989;-47
2022/09/02 08:38:39;;;;;;;;;;;20.60;70.30;;;;;;5042140;28;87299;-46
2022/09/02 08:41:14;;;;;;;;;;;20.60;70.20;;;;;;5047852;27;88095;-46
2022/09/02 08:43:41;;;;;;;;;;;20.60;70.30;;;;;;5045770;28;87124;-46
2022/09/02 08:46:10;;;;;;;;;;;20.60;70.30;;;;;;5045939;28;87566;-47
2022/09/02 08:48:35;;;;;;;;;;;20.60;70.30;;;;;;5044762;28;89690;-48
2022/09/02 08:51:08;;;;;;;;;;;20.60;70.30;;;;;;5046295;28;87111;-47
2022/09/02 08:53:46;;;;;;;;;;;20.60;70.30;;;;;;5045585;27;89011;-46
2022/09/02 08:56:14;;;;;;;;;;;20.60;70.20;;;;;;5045297;28;89370;-44
2022/09/02 08:58:42;;;;;;;;;;;20.60;70.30;;;;;;5046025;28;86342;-44
2022/09/02 09:01:19;;;;;;;;;;;20.60;70.30;;;;;;5045669;27;87258;-44
2022/09/02 09:04:00;;;;;;;;;;;20.60;70.20;;;;;;5048024;28;88512;-47
2022/09/02 09:06:33;;;;;;;;;;;20.60;70.10;;;;;;5044951;28;88016;-46
2022/09/02 09:09:02;;;;;;;;;;;20.60;70.20;;;;;;5045251;27;87928;-45
2022/09/02 09:11:41;;;;;;;;;;;20.60;70.20;;;;;;5045561;28;87091;-44
2022/09/02 09:14:06;;;;;;;;;;;20.70;70.20;;;;;;5045373;28;88964;-43
2022/09/02 09:16:40;;;;;;;;;;;20.70;70.30;;;;;;5045237;28;88138;-44
2022/09/02 09:19:11;;;;;;;;;;;20.70;70.20;;;;;;5045128;28;87061;-44
2022/09/02 09:21:37;;;;;;;;;;;20.70;70.30;;;;;;5045072;27;87904;-46
2022/09/02 09:24:20;;;;;;;;;;;20.70;70.20;;;;;;5048149;28;88692;-46
2022/09/02 09:26:46;;;;;;;;;;;20.60;70.20;;;;;;5045401;27;86955;-46
2022/09/02 09:29:11;;;;;;;;;;;20.60;70.20;;;;;;5044577;28;89314;-49
2022/09/02 09:31:38;;;;;;;;;;;20.70;70.30;;;;;;5044552;28;88138;-44
2022/09/02 09:34:08;;;;;;;;;;;20.70;70.30;;;;;;5045056;27;88399;-44
2022/09/02 09:36:39;;;;;;;;;;;20.70;70.20;;;;;;5044894;28;87769;-46
2022/09/02 09:39:17;;;;;;;;;;;20.70;70.10;;;;;;5044986;28;87095;-48
2022/09/02 09:41:43;;;;;;;;;;;20.70;70.20;;;;;;5045102;28;87361;-45
2022/09/02 09:44:09;;;;;;;;;;;20.70;70.10;;;;;;5044731;28;88086;-46
2022/09/02 09:46:34;;;;;;;;;;;20.70;70.10;;;;;;5048285;28;87212;-46
2022/09/02 09:49:00;;;;;;;;;;;20.70;70.10;;;;;;5044850;28;87109;-45
2022/09/02 09:51:25;;;;;;;;;;;20.70;70.20;;;;;;5043580;27;87144;-45
2022/09/02 09:53:51;;;;;;;;;;;20.70;70.20;;;;;;5044919;28;87239;-46
2022/09/02 09:56:17;;;;;;;;;;;20.70;70.10;;;;;;5043417;28;90355;-44
2022/09/02 09:58:44;;;;;;;;;;;20.70;70.20;;;;;;5044679;28;86999;-44
2022/09/02 10:01:10;;;;;;;;;;;20.70;70.10;;;;;;5044727;27;87381;-45
2022/09/02 10:03:37;;;;;;;;;;;20.70;70.10;;;;;;5044537;28;87375;-46
2022/09/02 10:06:16;;;;;;;;;;;20.70;70.10;;;;;;5044227;28;87078;-46
2022/09/02 10:09:08;;;;;;;;;;;20.70;70.00;;;;;;5047158;27;88874;-46
2022/09/02 10:11:35;;;;;;;;;;;20.70;70.00;;;;;;5035192;28;87714;-45
2022/09/02 10:14:02;;;;;;;;;;;20.80;70.10;;;;;;5044615;27;89106;-47
2022/09/02 10:16:36;;;;;;;;;;;20.80;70.00;;;;;;5043996;28;87956;-45
2022/09/02 10:19:20;;;;;;;;;;;20.80;70.10;;;;;;5044583;28;87033;-46
2022/09/02 10:21:49;;;;;;;;;;;20.70;69.90;;;;;;5043957;28;88081;-46
2022/09/02 10:24:20;;;;;;;;;;;20.80;70.00;;;;;;5043599;28;89662;-46
2022/09/02 10:26:47;;;;;;;;;;;20.80;70.00;;;;;;5044343;28;87118;-43
2022/09/02 10:29:13;;;;;;;;;;;20.80;69.90;;;;;;5044059;27;89030;-45
2022/09/02 10:31:53;;;;;;;;;;;20.80;69.80;;;;;;5046535;28;88100;-45
2022/09/02 10:34:38;;;;;;;;;;;20.80;69.80;;;;;;5044105;28;87301;-44
2022/09/02 10:37:13;;;;;;;;;;;20.80;69.60;;;;;;5043894;28;87925;-43
2022/09/02 10:39:51;;;;;;;;;;;20.80;69.60;;;;;;5044416;28;86422;-43
2022/09/02 10:42:36;;;;;;;;;;;20.90;69.70;;;;;;5044293;28;87048;-45
2022/09/02 10:45:16;;;;;;;;;;;20.90;69.40;;;;;;5031359;28;88176;-44
2022/09/02 10:47:43;;;;;;;;;;;20.90;69.30;;;;;;5042922;28;88015;-45
2022/09/02 10:50:35;;;;;;;;;;;20.90;69.70;;;;;;5043311;27;89831;-45
2022/09/02 10:53:26;;;;;;;;;;;20.90;69.60;;;;;;5033843;28;88839;-43
2022/09/02 10:55:57;;;;;;;;;;;20.90;69.40;;;;;;5037100;28;86941;-44
2022/09/02 10:58:22;;;;;;;;;;;20.90;69.40;;;;;;5043093;28;88166;-44
2022/09/02 11:00:50;;;;;;;;;;;20.90;69.50;;;;;;5043673;28;87120;-48
2022/09/02 11:03:31;;;;;;;;;;;20.90;69.50;;;;;;5043307;27;88880;-45
2022/09/02 11:06:06;;;;;;;;;;;20.90;69.70;;;;;;5043862;28;86502;-45
2022/09/02 11:08:44;;;;;;;;;;;20.90;69.70;;;;;;5043655;28;86966;-44
2022/09/02 11:11:13;;;;;;;;;;;20.90;69.90;;;;;;5043774;28;87713;-46
2022/09/02 11:13:48;;;;;;;;;;;20.90;70.00;;;;;;5042314;28;90361;-44
2022/09/02 11:16:19;;;;;;;;;;;20.90;70.00;;;;;;5043629;28;86994;-45
2022/09/02 11:18:56;;;;;;;;;;;20.90;70.10;;;;;;5046217;28;87417;-45
2022/09/02 11:21:34;;;;;;;;;;;20.90;70.20;;;;;;5043022;28;87419;-45
2022/09/02 11:24:09;;;;;;;;;;;20.90;70.80;;;;;;5043471;28;87415;-44
2022/09/02 11:26:47;;;;;;;;;;;20.90;70.20;;;;;;5042886;28;89434;-44
2022/09/02 11:29:16;;;;;;;;;;;21.00;70.10;;;;;;5043534;28;86949;-46
2022/09/02 11:31:57;;;;;;;;;;;20.90;70.10;;;;;;5043081;28;87467;-43
2022/09/02 11:34:33;;;;;;;;;;;21.00;70.00;;;;;;5042933;28;87893;-46
2022/09/02 11:37:09;;;;;;;;;;;21.00;70.10;;;;;;5043202;28;87160;-46
2022/09/02 11:39:41;;;;;;;;;;;21.00;70.10;;;;;;5045127;27;89066;-45
2022/09/02 11:42:19;;;;;;;;;;;21.00;70.10;;;;;;5043353;28;87143;-45
2022/09/02 11:44:45;;;;;;;;;;;21.00;70.30;;;;;;5043413;28;87441;-43
2022/09/02 11:47:23;;;;;;;;;;;21.00;70.30;;;;;;5042894;28;88044;-45
2022/09/02 11:49:55;;;;;;;;;;;21.00;70.10;;;;;;5042415;28;87108;-45
2022/09/02 11:52:39;;;;;;;;;;;21.00;70.30;;;;;;5043176;27;87289;-44
2022/09/02 11:55:10;;;;;;;;;;;21.00;70.30;;;;;;5042796;28;88234;-44
2022/09/02 11:57:40;;;;;;;;;;;20.90;70.40;;;;;;5043089;28;86285;-47
2022/09/02 12:00:25;;;;;;;;;;;21.00;70.30;;;;;;5042679;28;87148;-47
2022/09/02 12:02:55;;;;;;;;;;;21.00;70.40;;;;;;5045284;28;89789;-46
2022/09/02 12:05:28;;;;;;;;;;;21.00;70.40;;;;;;5042083;27;88828;-45
2022/09/02 12:07:55;;;;;;;;;;;21.00;70.30;;;;;;5042110;28;89280;-43
2022/09/02 12:10:39;;;;;;;;;;;21.10;70.50;;;;;;5042911;28;87254;-45
2022/09/02 12:13:06;;;;;;;;;;;21.10;70.40;;;;;;5042540;27;88621;-44
2022/09/02 12:15:34;;;;;;;;;;;21.10;70.40;;;;;;5041448;28;89403;-46
2022/09/02 12:18:03;;;;;;;;;;;21.10;70.30;;;;;;5042542;28;87161;-44
2022/09/02 12:20:37;;;;;;;;;;;21.10;70.40;;;;;;5042438;27;89067;-48
2022/09/02 12:23:03;;;;;;;;;;;21.10;70.60;;;;;;5042870;28;87326;-43
2022/09/02 12:25:32;;;;;;;;;;;21.10;70.50;;;;;;5045779;28;87350;-45
2022/09/02 12:28:22;;;;;;;;;;;21.10;70.50;;;;;;5041881;28;89313;-44
2022/09/02 12:31:08;;;;;;;;;;;21.10;70.60;;;;;;5041355;28;88176;-44
2022/09/02 12:33:35;;;;;;;;;;;21.10;70.50;;;;;;5042297;27;89648;-45
2022/09/02 12:36:03;;;;;;;;;;;21.10;70.60;;;;;;5042037;28;88104;-42
2022/09/02 12:38:30;;;;;;;;;;;21.10;70.60;;;;;;5042264;28;87138;-44
2022/09/02 12:41:04;;;;;;;;;;;21.20;70.70;;;;;;5042163;27;87297;-45
2022/09/02 12:43:36;;;;;;;;;;;21.20;70.60;;;;;;5042144;28;88143;-44
2022/09/02 12:46:16;;;;;;;;;;;21.20;70.70;;;;;;5042605;28;87109;-43
2022/09/02 12:48:48;;;;;;;;;;;21.10;70.60;;;;;;5045212;27;86329;-43
2022/09/02 12:51:33;;;;;;;;;;;21.20;70.80;;;;;;5041909;28;87069;-45
2022/09/02 12:53:59;;;;;;;;;;;21.10;70.80;;;;;;5041878;28;87008;-44
2022/09/02 12:56:24;;;;;;;;;;;21.10;70.80;;;;;;5041213;28;88850;-45
2022/09/02 12:58:53;;;;;;;;;;;21.10;71.00;;;;;;5042373;28;87136;-45
2022/09/02 13:01:38;;;;;;;;;;;21.10;70.80;;;;;;5042133;27;87119;-43
2022/09/02 13:04:09;;;;;;;;;;;21.10;70.70;;;;;;5041891;28;87919;-44
2022/09/02 13:06:53;;;;;;;;;;;21.10;70.90;;;;;;5041661;28;87302;-44
2022/09/02 13:09:37;;;;;;;;;;;21.10;71.00;;;;;;5042203;28;87585;-44
2022/09/02 13:12:09;;;;;;;;;;;21.10;71.10;;;;;;5044455;28;87216;-44
2022/09/02 13:14:34;;;;;;;;;;;21.10;71.10;;;;;;5042452;28;87477;-45
2022/09/02 13:17:15;;;;;;;;;;;21.10;71.00;;;;;;5041588;28;87931;-46
2022/09/02 13:19:40;;;;;;;;;;;21.10;71.10;;;;;;5041982;28;87084;-46
2022/09/02 13:22:09;;;;;;;;;;;21.10;71.30;;;;;;5041416;27;88011;-45
2022/09/02 13:24:41;;;;;;;;;;;21.10;71.20;;;;;;5041104;28;89511;-46
2022/09/02 13:27:09;;;;;;;;;;;21.10;71.10;;;;;;5043897;27;86879;-45
2022/09/02 13:29:40;;;;;;;;;;;21.10;71.00;;;;;;5045253;28;87391;-43
2022/09/02 13:32:08;;;;;;;;;;;21.10;71.10;;;;;;5044627;28;87477;-46
2022/09/02 13:34:39;;;;;;;;;;;21.10;71.10;;;;;;5048049;28;86880;-46
2022/09/02 13:37:05;;;;;;;;;;;21.10;71.00;;;;;;5044739;28;87984;-45
2022/09/02 13:39:30;;;;;;;;;;;21.20;71.20;;;;;;5045447;28;86352;-44
2022/09/02 13:41:56;;;;;;;;;;;21.10;71.00;;;;;;5045154;28;86927;-44
2022/09/02 13:44:23;;;;;;;;;;;21.20;71.20;;;;;;5044809;28;88213;-47
2022/09/02 13:46:50;;;;;;;;;;;21.10;71.10;;;;;;5044413;28;87992;-44
2022/09/02 13:49:21;;;;;;;;;;;21.10;71.10;;;;;;5044291;28;90552;-44
2022/09/02 13:51:47;;;;;;;;;;;21.20;71.20;;;;;;5044631;28;88182;-45
2022/09/02 13:54:13;;;;;;;;;;;21.10;71.10;;;;;;5047551;28;87080;-44
2022/09/02 13:56:39;;;;;;;;;;;21.10;71.30;;;;;;5044467;28;87932;-43
2022/09/02 13:59:04;;;;;;;;;;;21.10;71.30;;;;;;5044964;28;87223;-47
2022/09/02 14:01:32;;;;;;;;;;;21.20;71.20;;;;;;5044834;28;87420;-44
2022/09/02 14:03:59;;;;;;;;;;;21.10;71.40;;;;;;5044796;28;87256;-45
2022/09/02 14:06:27;;;;;;;;;;;21.20;71.20;;;;;;5044492;28;87115;-46
2022/09/02 14:08:55;;;;;;;;;;;21.20;71.20;;;;;;5044343;28;88865;-42
2022/09/02 14:11:20;;;;;;;;;;;21.20;71.30;;;;;;5043603;28;88959;-45
2022/09/02 14:13:47;;;;;;;;;;;21.20;71.30;;;;;;5044638;28;87105;-44
2022/09/02 14:16:25;;;;;;;;;;;21.20;71.30;;;;;;5046896;28;88911;-44
2022/09/02 14:19:09;;;;;;;;;;;21.20;71.20;;;;;;5044638;28;86876;-44
2022/09/02 14:21:35;;;;;;;;;;;21.20;71.10;;;;;;5044573;28;87349;-45
2022/09/02 14:24:01;;;;;;;;;;;21.20;71.20;;;;;;5043934;28;89661;-43
2022/09/02 14:26:32;;;;;;;;;;;21.20;71.30;;;;;;5044047;28;87804;-45